sensor_id;sensor_type;location;lat;lon;timestamp;P1;durP1;ratioP1;P2;durP2;ratioP2
17650;SDS011;26663;59.302;18.082;2023-11-19T00:02:47;2.37;;;2.10;;
17650;SDS011;26663;59.302;18.082;2023-11-19T00:05:52;3.10;;;2.20;;
17650;SDS011;26663;59.302;18.082;2023-11-19T00:08:56;2.40;;;2.20;;
17650;SDS011;26663;59.302;18.082;2023-11-19T00:12:00;2.20;;;2.10;;
17650;SDS011;26663;59.302;18.082;2023-11-19T00:15:04;2.43;;;2.20;;
17650;SDS011;26663;59.302;18.082;2023-11-19T00:18:11;2.33;;;2.20;;
17650;SDS011;26663;59.302;18.082;2023-11-19T00:21:16;5.57;;;2.13;;
17650;SDS011;26663;59.302;18.082;2023-11-19T00:24:20;2.10;;;2.10;;
17650;SDS011;26663;59.302;18.082;2023-11-19T00:27:23;2.00;;;2.00;;
17650;SDS011;26663;59.302;18.082;2023-11-19T00:30:27;2.30;;;2.10;;
17650;SDS011;26663;59.302;18.082;2023-11-19T00:33:31;2.30;;;2.30;;
17650;SDS011;26663;59.302;18.082;2023-11-19T00:36:36;2.10;;;2.10;;
17650;SDS011;26663;59.302;18.082;2023-11-19T00:39:39;2.40;;;2.20;;
17650;SDS011;26663;59.302;18.082;2023-11-19T00:42:43;2.30;;;2.30;;
17650;SDS011;26663;59.302;18.082;2023-11-19T00:45:47;2.47;;;2.37;;
17650;SDS011;26663;59.302;18.082;2023-11-19T00:48:52;1.97;;;1.97;;
17650;SDS011;26663;59.302;18.082;2023-11-19T00:51:58;2.20;;;2.20;;
17650;SDS011;26663;59.302;18.082;2023-11-19T00:55:02;2.40;;;2.30;;
17650;SDS011;26663;59.302;18.082;2023-11-19T00:58:06;2.20;;;2.20;;
17650;SDS011;26663;59.302;18.082;2023-11-19T01:01:11;2.30;;;2.30;;
17650;SDS011;26663;59.302;18.082;2023-11-19T01:04:15;2.40;;;2.40;;
17650;SDS011;26663;59.302;18.082;2023-11-19T01:07:20;2.47;;;2.20;;
17650;SDS011;26663;59.302;18.082;2023-11-19T01:10:24;2.20;;;2.20;;
17650;SDS011;26663;59.302;18.082;2023-11-19T01:13:28;2.17;;;2.10;;
17650;SDS011;26663;59.302;18.082;2023-11-19T01:16:31;2.30;;;2.30;;
17650;SDS011;26663;59.302;18.082;2023-11-19T01:19:36;2.33;;;2.30;;
17650;SDS011;26663;59.302;18.082;2023-11-19T01:22:41;2.33;;;2.33;;
17650;SDS011;26663;59.302;18.082;2023-11-19T01:25:45;2.30;;;2.30;;
17650;SDS011;26663;59.302;18.082;2023-11-19T01:28:50;5.13;;;2.50;;
17650;SDS011;26663;59.302;18.082;2023-11-19T01:31:55;2.67;;;2.57;;
17650;SDS011;26663;59.302;18.082;2023-11-19T01:34:58;2.60;;;2.50;;
17650;SDS011;26663;59.302;18.082;2023-11-19T01:38:04;3.03;;;2.77;;
17650;SDS011;26663;59.302;18.082;2023-11-19T01:41:10;2.30;;;2.30;;
17650;SDS011;26663;59.302;18.082;2023-11-19T01:44:14;2.83;;;2.70;;
17650;SDS011;26663;59.302;18.082;2023-11-19T01:47:18;2.40;;;2.40;;
17650;SDS011;26663;59.302;18.082;2023-11-19T01:50:22;2.97;;;2.77;;
17650;SDS011;26663;59.302;18.082;2023-11-19T01:53:28;2.60;;;2.60;;
17650;SDS011;26663;59.302;18.082;2023-11-19T01:56:32;2.60;;;2.50;;
17650;SDS011;26663;59.302;18.082;2023-11-19T01:59:37;2.60;;;2.50;;
17650;SDS011;26663;59.302;18.082;2023-11-19T02:02:41;2.90;;;2.80;;
17650;SDS011;26663;59.302;18.082;2023-11-19T02:05:45;2.60;;;2.50;;
17650;SDS011;26663;59.302;18.082;2023-11-19T02:08:52;2.77;;;2.67;;
17650;SDS011;26663;59.302;18.082;2023-11-19T02:11:56;3.70;;;3.53;;
17650;SDS011;26663;59.302;18.082;2023-11-19T02:15:00;4.70;;;4.40;;
17650;SDS011;26663;59.302;18.082;2023-11-19T02:18:20;4.80;;;4.50;;
17650;SDS011;26663;59.302;18.082;2023-11-19T02:21:24;5.87;;;5.37;;
17650;SDS011;26663;59.302;18.082;2023-11-19T02:24:30;5.63;;;5.23;;
17650;SDS011;26663;59.302;18.082;2023-11-19T02:27:41;6.47;;;5.87;;
17650;SDS011;26663;59.302;18.082;2023-11-19T02:30:50;6.43;;;5.93;;
17650;SDS011;26663;59.302;18.082;2023-11-19T02:33:55;5.30;;;4.80;;
17650;SDS011;26663;59.302;18.082;2023-11-19T02:36:59;5.00;;;4.00;;
17650;SDS011;26663;59.302;18.082;2023-11-19T02:40:03;8.33;;;3.80;;
17650;SDS011;26663;59.302;18.082;2023-11-19T02:43:09;3.57;;;3.37;;
17650;SDS011;26663;59.302;18.082;2023-11-19T02:46:13;2.90;;;2.80;;
17650;SDS011;26663;59.302;18.082;2023-11-19T02:49:17;3.07;;;2.97;;
17650;SDS011;26663;59.302;18.082;2023-11-19T02:52:21;2.80;;;2.80;;
17650;SDS011;26663;59.302;18.082;2023-11-19T02:55:25;2.70;;;2.57;;
17650;SDS011;26663;59.302;18.082;2023-11-19T02:58:33;2.57;;;2.57;;
17650;SDS011;26663;59.302;18.082;2023-11-19T03:01:37;3.50;;;2.60;;
17650;SDS011;26663;59.302;18.082;2023-11-19T03:04:45;2.37;;;2.37;;
17650;SDS011;26663;59.302;18.082;2023-11-19T03:07:49;2.70;;;2.60;;
17650;SDS011;26663;59.302;18.082;2023-11-19T03:10:53;2.73;;;2.57;;
17650;SDS011;26663;59.302;18.082;2023-11-19T03:13:59;2.40;;;2.40;;
17650;SDS011;26663;59.302;18.082;2023-11-19T03:17:03;2.50;;;2.40;;
17650;SDS011;26663;59.302;18.082;2023-11-19T03:20:07;2.70;;;2.50;;
17650;SDS011;26663;59.302;18.082;2023-11-19T03:23:16;3.90;;;2.20;;
17650;SDS011;26663;59.302;18.082;2023-11-19T03:26:19;2.63;;;2.63;;
17650;SDS011;26663;59.302;18.082;2023-11-19T03:29:25;2.50;;;2.50;;
17650;SDS011;26663;59.302;18.082;2023-11-19T03:32:31;2.40;;;2.40;;
17650;SDS011;26663;59.302;18.082;2023-11-19T03:35:36;2.87;;;2.33;;
17650;SDS011;26663;59.302;18.082;2023-11-19T03:38:40;2.97;;;2.80;;
17650;SDS011;26663;59.302;18.082;2023-11-19T03:41:45;2.40;;;2.30;;
17650;SDS011;26663;59.302;18.082;2023-11-19T03:44:51;2.27;;;2.27;;
17650;SDS011;26663;59.302;18.082;2023-11-19T03:47:55;2.27;;;2.27;;
17650;SDS011;26663;59.302;18.082;2023-11-19T03:50:59;2.00;;;2.00;;
17650;SDS011;26663;59.302;18.082;2023-11-19T03:54:03;2.10;;;2.10;;
17650;SDS011;26663;59.302;18.082;2023-11-19T03:57:08;2.13;;;2.13;;
17650;SDS011;26663;59.302;18.082;2023-11-19T04:00:14;2.50;;;2.40;;
17650;SDS011;26663;59.302;18.082;2023-11-19T04:03:19;3.03;;;2.87;;
17650;SDS011;26663;59.302;18.082;2023-11-19T04:06:22;2.73;;;2.63;;
17650;SDS011;26663;59.302;18.082;2023-11-19T04:09:26;2.40;;;2.40;;
17650;SDS011;26663;59.302;18.082;2023-11-19T04:12:30;2.23;;;2.20;;
17650;SDS011;26663;59.302;18.082;2023-11-19T04:15:35;2.80;;;2.30;;
17650;SDS011;26663;59.302;18.082;2023-11-19T04:18:38;2.77;;;2.43;;
17650;SDS011;26663;59.302;18.082;2023-11-19T04:21:42;2.87;;;2.40;;
17650;SDS011;26663;59.302;18.082;2023-11-19T04:24:46;2.17;;;2.07;;
17650;SDS011;26663;59.302;18.082;2023-11-19T04:27:50;1.90;;;1.90;;
17650;SDS011;26663;59.302;18.082;2023-11-19T04:30:55;2.17;;;2.10;;
17650;SDS011;26663;59.302;18.082;2023-11-19T04:33:59;2.00;;;2.00;;
17650;SDS011;26663;59.302;18.082;2023-11-19T04:37:03;2.03;;;1.97;;
17650;SDS011;26663;59.302;18.082;2023-11-19T04:40:10;1.90;;;1.87;;
17650;SDS011;26663;59.302;18.082;2023-11-19T04:43:15;1.90;;;1.90;;
17650;SDS011;26663;59.302;18.082;2023-11-19T04:46:20;2.17;;;2.17;;
17650;SDS011;26663;59.302;18.082;2023-11-19T04:49:26;1.80;;;1.80;;
17650;SDS011;26663;59.302;18.082;2023-11-19T04:52:30;1.87;;;1.87;;
17650;SDS011;26663;59.302;18.082;2023-11-19T04:55:34;2.30;;;2.20;;
17650;SDS011;26663;59.302;18.082;2023-11-19T04:58:37;2.07;;;2.07;;
17650;SDS011;26663;59.302;18.082;2023-11-19T05:01:46;1.63;;;1.63;;
17650;SDS011;26663;59.302;18.082;2023-11-19T05:04:49;1.70;;;1.70;;
17650;SDS011;26663;59.302;18.082;2023-11-19T05:07:53;1.93;;;1.93;;
17650;SDS011;26663;59.302;18.082;2023-11-19T05:10:57;1.80;;;1.80;;
17650;SDS011;26663;59.302;18.082;2023-11-19T05:14:02;2.10;;;2.00;;
17650;SDS011;26663;59.302;18.082;2023-11-19T05:17:08;1.80;;;1.70;;
17650;SDS011;26663;59.302;18.082;2023-11-19T05:20:12;2.00;;;1.90;;
17650;SDS011;26663;59.302;18.082;2023-11-19T05:23:16;1.77;;;1.77;;
17650;SDS011;26663;59.302;18.082;2023-11-19T05:26:23;2.50;;;2.40;;
17650;SDS011;26663;59.302;18.082;2023-11-19T05:29:27;2.87;;;2.77;;
17650;SDS011;26663;59.302;18.082;2023-11-19T05:32:33;3.77;;;3.00;;
17650;SDS011;26663;59.302;18.082;2023-11-19T05:35:37;3.13;;;2.83;;
17650;SDS011;26663;59.302;18.082;2023-11-19T05:38:40;2.87;;;2.73;;
17650;SDS011;26663;59.302;18.082;2023-11-19T05:41:44;2.97;;;2.87;;
17650;SDS011;26663;59.302;18.082;2023-11-19T05:44:48;2.83;;;2.70;;
17650;SDS011;26663;59.302;18.082;2023-11-19T05:47:53;2.90;;;2.80;;
17650;SDS011;26663;59.302;18.082;2023-11-19T05:50:57;3.00;;;2.90;;
17650;SDS011;26663;59.302;18.082;2023-11-19T05:54:00;2.80;;;2.70;;
17650;SDS011;26663;59.302;18.082;2023-11-19T05:57:04;3.27;;;3.07;;
17650;SDS011;26663;59.302;18.082;2023-11-19T06:00:09;2.67;;;2.57;;
17650;SDS011;26663;59.302;18.082;2023-11-19T06:03:16;2.93;;;2.83;;
17650;SDS011;26663;59.302;18.082;2023-11-19T06:06:20;2.93;;;2.80;;
17650;SDS011;26663;59.302;18.082;2023-11-19T06:09:24;2.70;;;2.70;;
17650;SDS011;26663;59.302;18.082;2023-11-19T06:12:28;2.67;;;2.67;;
17650;SDS011;26663;59.302;18.082;2023-11-19T06:15:32;3.27;;;3.07;;
17650;SDS011;26663;59.302;18.082;2023-11-19T06:18:37;2.97;;;2.87;;
17650;SDS011;26663;59.302;18.082;2023-11-19T06:21:44;2.80;;;2.80;;
17650;SDS011;26663;59.302;18.082;2023-11-19T06:24:47;2.70;;;2.50;;
17650;SDS011;26663;59.302;18.082;2023-11-19T06:27:51;2.57;;;2.47;;
17650;SDS011;26663;59.302;18.082;2023-11-19T06:30:55;3.03;;;2.83;;
17650;SDS011;26663;59.302;18.082;2023-11-19T06:34:01;2.40;;;2.40;;
17650;SDS011;26663;59.302;18.082;2023-11-19T06:37:05;2.77;;;2.67;;
17650;SDS011;26663;59.302;18.082;2023-11-19T06:40:11;2.87;;;2.60;;
17650;SDS011;26663;59.302;18.082;2023-11-19T06:43:17;2.90;;;2.80;;
17650;SDS011;26663;59.302;18.082;2023-11-19T06:46:21;2.50;;;2.50;;
17650;SDS011;26663;59.302;18.082;2023-11-19T06:49:26;3.47;;;2.80;;
17650;SDS011;26663;59.302;18.082;2023-11-19T06:52:30;2.67;;;2.60;;
17650;SDS011;26663;59.302;18.082;2023-11-19T06:55:34;2.83;;;2.67;;
17650;SDS011;26663;59.302;18.082;2023-11-19T06:58:37;2.47;;;2.47;;
17650;SDS011;26663;59.302;18.082;2023-11-19T07:01:41;3.07;;;2.80;;
17650;SDS011;26663;59.302;18.082;2023-11-19T07:04:47;2.60;;;2.57;;
17650;SDS011;26663;59.302;18.082;2023-11-19T07:07:51;3.03;;;2.70;;
17650;SDS011;26663;59.302;18.082;2023-11-19T07:10:56;2.33;;;2.33;;
17650;SDS011;26663;59.302;18.082;2023-11-19T07:13:59;2.67;;;2.57;;
17650;SDS011;26663;59.302;18.082;2023-11-19T07:17:04;2.47;;;2.47;;
17650;SDS011;26663;59.302;18.082;2023-11-19T07:20:10;2.90;;;2.90;;
17650;SDS011;26663;59.302;18.082;2023-11-19T07:23:17;3.07;;;2.97;;
17650;SDS011;26663;59.302;18.082;2023-11-19T07:26:21;2.70;;;2.70;;
17650;SDS011;26663;59.302;18.082;2023-11-19T07:29:25;2.70;;;2.70;;
17650;SDS011;26663;59.302;18.082;2023-11-19T07:32:31;3.10;;;2.90;;
17650;SDS011;26663;59.302;18.082;2023-11-19T07:35:36;3.30;;;3.20;;
17650;SDS011;26663;59.302;18.082;2023-11-19T07:38:39;2.67;;;2.57;;
17650;SDS011;26663;59.302;18.082;2023-11-19T07:41:43;3.10;;;2.90;;
17650;SDS011;26663;59.302;18.082;2023-11-19T07:44:47;3.00;;;2.90;;
17650;SDS011;26663;59.302;18.082;2023-11-19T07:47:51;2.83;;;2.73;;
17650;SDS011;26663;59.302;18.082;2023-11-19T07:50:56;2.97;;;2.77;;
17650;SDS011;26663;59.302;18.082;2023-11-19T07:54:00;3.57;;;3.00;;
17650;SDS011;26663;59.302;18.082;2023-11-19T07:57:03;2.90;;;2.80;;
17650;SDS011;26663;59.302;18.082;2023-11-19T08:00:08;3.10;;;3.03;;
17650;SDS011;26663;59.302;18.082;2023-11-19T08:03:14;3.40;;;3.20;;
17650;SDS011;26663;59.302;18.082;2023-11-19T08:06:20;3.27;;;3.17;;
17650;SDS011;26663;59.302;18.082;2023-11-19T08:09:23;2.97;;;2.87;;
17650;SDS011;26663;59.302;18.082;2023-11-19T08:12:27;3.33;;;2.93;;
17650;SDS011;26663;59.302;18.082;2023-11-19T08:15:31;3.07;;;2.97;;
17650;SDS011;26663;59.302;18.082;2023-11-19T08:18:35;2.73;;;2.67;;
17650;SDS011;26663;59.302;18.082;2023-11-19T08:21:40;3.57;;;3.37;;
17650;SDS011;26663;59.302;18.082;2023-11-19T08:24:44;3.27;;;3.17;;
17650;SDS011;26663;59.302;18.082;2023-11-19T08:27:48;2.87;;;2.83;;
17650;SDS011;26663;59.302;18.082;2023-11-19T08:30:52;2.90;;;2.80;;
17650;SDS011;26663;59.302;18.082;2023-11-19T08:33:55;2.93;;;2.83;;
17650;SDS011;26663;59.302;18.082;2023-11-19T08:37:00;3.30;;;3.20;;
17650;SDS011;26663;59.302;18.082;2023-11-19T08:40:05;3.47;;;3.27;;
17650;SDS011;26663;59.302;18.082;2023-11-19T08:43:10;3.40;;;3.30;;
17650;SDS011;26663;59.302;18.082;2023-11-19T08:46:14;4.23;;;3.53;;
17650;SDS011;26663;59.302;18.082;2023-11-19T08:49:17;5.53;;;3.27;;
17650;SDS011;26663;59.302;18.082;2023-11-19T08:52:23;3.33;;;3.13;;
17650;SDS011;26663;59.302;18.082;2023-11-19T08:55:27;4.13;;;3.50;;
17650;SDS011;26663;59.302;18.082;2023-11-19T08:58:30;3.77;;;3.67;;
17650;SDS011;26663;59.302;18.082;2023-11-19T09:01:34;3.13;;;3.10;;
17650;SDS011;26663;59.302;18.082;2023-11-19T09:04:38;3.47;;;3.30;;
17650;SDS011;26663;59.302;18.082;2023-11-19T09:07:44;3.57;;;3.30;;
17650;SDS011;26663;59.302;18.082;2023-11-19T09:10:48;3.63;;;3.50;;
17650;SDS011;26663;59.302;18.082;2023-11-19T09:13:51;3.00;;;2.90;;
17650;SDS011;26663;59.302;18.082;2023-11-19T09:16:55;3.93;;;3.20;;
17650;SDS011;26663;59.302;18.082;2023-11-19T09:19:59;8.03;;;3.20;;
17650;SDS011;26663;59.302;18.082;2023-11-19T09:23:04;3.73;;;3.37;;
17650;SDS011;26663;59.302;18.082;2023-11-19T09:26:08;3.53;;;3.33;;
17650;SDS011;26663;59.302;18.082;2023-11-19T09:29:12;3.37;;;3.27;;
17650;SDS011;26663;59.302;18.082;2023-11-19T09:32:17;3.30;;;3.20;;
17650;SDS011;26663;59.302;18.082;2023-11-19T09:35:20;3.30;;;3.20;;
17650;SDS011;26663;59.302;18.082;2023-11-19T09:38:25;3.43;;;3.17;;
17650;SDS011;26663;59.302;18.082;2023-11-19T09:41:29;3.10;;;3.00;;
17650;SDS011;26663;59.302;18.082;2023-11-19T09:44:34;2.77;;;2.67;;
17650;SDS011;26663;59.302;18.082;2023-11-19T09:47:38;3.27;;;3.17;;
17650;SDS011;26663;59.302;18.082;2023-11-19T09:50:43;2.87;;;2.77;;
17650;SDS011;26663;59.302;18.082;2023-11-19T09:53:49;2.90;;;2.80;;
17650;SDS011;26663;59.302;18.082;2023-11-19T09:56:53;2.97;;;2.87;;
17650;SDS011;26663;59.302;18.082;2023-11-19T09:59:57;3.00;;;2.97;;
17650;SDS011;26663;59.302;18.082;2023-11-19T10:03:01;3.17;;;3.07;;
17650;SDS011;26663;59.302;18.082;2023-11-19T10:06:07;3.03;;;2.93;;
17650;SDS011;26663;59.302;18.082;2023-11-19T10:09:13;3.10;;;3.00;;
17650;SDS011;26663;59.302;18.082;2023-11-19T10:12:18;3.10;;;3.00;;
17650;SDS011;26663;59.302;18.082;2023-11-19T10:15:22;3.20;;;3.10;;
17650;SDS011;26663;59.302;18.082;2023-11-19T10:18:29;2.87;;;2.77;;
17650;SDS011;26663;59.302;18.082;2023-11-19T10:21:33;2.93;;;2.83;;
17650;SDS011;26663;59.302;18.082;2023-11-19T10:24:38;3.33;;;3.00;;
17650;SDS011;26663;59.302;18.082;2023-11-19T10:27:50;3.10;;;2.90;;
17650;SDS011;26663;59.302;18.082;2023-11-19T10:30:55;3.20;;;3.10;;
17650;SDS011;26663;59.302;18.082;2023-11-19T10:33:59;3.17;;;2.97;;
17650;SDS011;26663;59.302;18.082;2023-11-19T10:37:03;2.90;;;2.70;;
17650;SDS011;26663;59.302;18.082;2023-11-19T10:40:10;2.70;;;2.60;;
17650;SDS011;26663;59.302;18.082;2023-11-19T10:43:14;2.80;;;2.60;;
17650;SDS011;26663;59.302;18.082;2023-11-19T10:46:17;2.60;;;2.60;;
17650;SDS011;26663;59.302;18.082;2023-11-19T10:49:25;2.77;;;2.63;;
17650;SDS011;26663;59.302;18.082;2023-11-19T10:52:28;2.63;;;2.57;;
17650;SDS011;26663;59.302;18.082;2023-11-19T10:55:34;2.77;;;2.67;;
17650;SDS011;26663;59.302;18.082;2023-11-19T10:58:41;2.80;;;2.70;;
17650;SDS011;26663;59.302;18.082;2023-11-19T11:01:48;2.60;;;2.40;;
17650;SDS011;26663;59.302;18.082;2023-11-19T11:04:55;2.40;;;2.40;;
17650;SDS011;26663;59.302;18.082;2023-11-19T11:07:58;2.93;;;2.73;;
17650;SDS011;26663;59.302;18.082;2023-11-19T11:11:06;2.80;;;2.70;;
17650;SDS011;26663;59.302;18.082;2023-11-19T11:14:12;2.40;;;2.40;;
17650;SDS011;26663;59.302;18.082;2023-11-19T11:17:17;2.30;;;2.30;;
17650;SDS011;26663;59.302;18.082;2023-11-19T11:20:21;2.80;;;2.70;;
17650;SDS011;26663;59.302;18.082;2023-11-19T11:23:37;2.43;;;2.33;;
17650;SDS011;26663;59.302;18.082;2023-11-19T11:27:08;2.63;;;2.53;;
17650;SDS011;26663;59.302;18.082;2023-11-19T11:30:35;2.60;;;2.50;;
17650;SDS011;26663;59.302;18.082;2023-11-19T11:33:55;4.73;;;3.93;;
17650;SDS011;26663;59.302;18.082;2023-11-19T11:37:11;3.13;;;2.80;;
17650;SDS011;26663;59.302;18.082;2023-11-19T11:40:22;2.67;;;2.57;;
17650;SDS011;26663;59.302;18.082;2023-11-19T11:43:46;2.60;;;2.50;;
17650;SDS011;26663;59.302;18.082;2023-11-19T11:46:55;2.67;;;2.57;;
17650;SDS011;26663;59.302;18.082;2023-11-19T11:50:03;2.83;;;2.77;;
17650;SDS011;26663;59.302;18.082;2023-11-19T11:53:18;2.83;;;2.73;;
17650;SDS011;26663;59.302;18.082;2023-11-19T11:56:31;2.93;;;2.70;;
17650;SDS011;26663;59.302;18.082;2023-11-19T11:59:40;3.63;;;2.80;;
17650;SDS011;26663;59.302;18.082;2023-11-19T12:02:46;2.90;;;2.70;;
17650;SDS011;26663;59.302;18.082;2023-11-19T12:05:50;2.50;;;2.40;;
17650;SDS011;26663;59.302;18.082;2023-11-19T12:08:59;2.53;;;2.43;;
17650;SDS011;26663;59.302;18.082;2023-11-19T12:12:18;2.90;;;2.80;;
17650;SDS011;26663;59.302;18.082;2023-11-19T12:15:24;2.73;;;2.63;;
17650;SDS011;26663;59.302;18.082;2023-11-19T12:18:30;2.73;;;2.63;;
17650;SDS011;26663;59.302;18.082;2023-11-19T12:21:34;2.57;;;2.57;;
17650;SDS011;26663;59.302;18.082;2023-11-19T12:24:41;2.77;;;2.40;;
17650;SDS011;26663;59.302;18.082;2023-11-19T12:27:46;3.03;;;2.93;;
17650;SDS011;26663;59.302;18.082;2023-11-19T12:30:52;3.00;;;2.80;;
17650;SDS011;26663;59.302;18.082;2023-11-19T12:33:56;2.60;;;2.60;;
17650;SDS011;26663;59.302;18.082;2023-11-19T12:37:03;3.33;;;3.10;;
17650;SDS011;26663;59.302;18.082;2023-11-19T12:40:16;3.10;;;3.00;;
17650;SDS011;26663;59.302;18.082;2023-11-19T12:43:21;2.63;;;2.63;;
17650;SDS011;26663;59.302;18.082;2023-11-19T12:46:27;3.53;;;3.43;;
17650;SDS011;26663;59.302;18.082;2023-11-19T12:49:31;2.63;;;2.63;;
17650;SDS011;26663;59.302;18.082;2023-11-19T12:52:34;2.90;;;2.80;;
17650;SDS011;26663;59.302;18.082;2023-11-19T12:55:38;3.57;;;3.47;;
17650;SDS011;26663;59.302;18.082;2023-11-19T12:58:42;2.80;;;2.70;;
17650;SDS011;26663;59.302;18.082;2023-11-19T13:01:54;3.27;;;3.17;;
17650;SDS011;26663;59.302;18.082;2023-11-19T13:04:58;3.20;;;3.10;;
17650;SDS011;26663;59.302;18.082;2023-11-19T13:08:02;3.20;;;3.10;;
17650;SDS011;26663;59.302;18.082;2023-11-19T13:11:07;3.30;;;3.13;;
17650;SDS011;26663;59.302;18.082;2023-11-19T13:14:11;3.20;;;3.00;;
17650;SDS011;26663;59.302;18.082;2023-11-19T13:17:16;5.30;;;3.43;;
17650;SDS011;26663;59.302;18.082;2023-11-19T13:20:20;3.43;;;3.10;;
17650;SDS011;26663;59.302;18.082;2023-11-19T13:23:24;3.47;;;3.37;;
17650;SDS011;26663;59.302;18.082;2023-11-19T13:26:28;3.10;;;3.00;;
17650;SDS011;26663;59.302;18.082;2023-11-19T13:29:32;3.33;;;3.13;;
17650;SDS011;26663;59.302;18.082;2023-11-19T13:32:39;3.30;;;3.10;;
17650;SDS011;26663;59.302;18.082;2023-11-19T13:35:43;3.67;;;3.37;;
17650;SDS011;26663;59.302;18.082;2023-11-19T13:38:46;3.13;;;3.03;;
17650;SDS011;26663;59.302;18.082;2023-11-19T13:41:50;3.20;;;3.10;;
17650;SDS011;26663;59.302;18.082;2023-11-19T13:44:54;3.67;;;3.47;;
17650;SDS011;26663;59.302;18.082;2023-11-19T13:47:59;3.30;;;3.20;;
17650;SDS011;26663;59.302;18.082;2023-11-19T13:51:03;3.80;;;3.63;;
17650;SDS011;26663;59.302;18.082;2023-11-19T13:54:08;3.50;;;3.20;;
17650;SDS011;26663;59.302;18.082;2023-11-19T13:57:12;3.33;;;3.23;;
17650;SDS011;26663;59.302;18.082;2023-11-19T14:00:16;3.80;;;3.60;;
17650;SDS011;26663;59.302;18.082;2023-11-19T14:03:22;3.67;;;3.47;;
17650;SDS011;26663;59.302;18.082;2023-11-19T14:06:26;3.40;;;3.30;;
17650;SDS011;26663;59.302;18.082;2023-11-19T14:09:30;3.50;;;3.27;;
17650;SDS011;26663;59.302;18.082;2023-11-19T14:12:34;3.17;;;3.07;;
17650;SDS011;26663;59.302;18.082;2023-11-19T14:15:38;3.13;;;2.93;;
17650;SDS011;26663;59.302;18.082;2023-11-19T14:18:44;3.77;;;3.50;;
17650;SDS011;26663;59.302;18.082;2023-11-19T14:21:48;4.00;;;3.80;;
17650;SDS011;26663;59.302;18.082;2023-11-19T14:24:52;3.90;;;3.70;;
17650;SDS011;26663;59.302;18.082;2023-11-19T14:27:57;4.03;;;3.80;;
17650;SDS011;26663;59.302;18.082;2023-11-19T14:31:01;3.90;;;3.60;;
17650;SDS011;26663;59.302;18.082;2023-11-19T14:34:06;4.30;;;4.00;;
17650;SDS011;26663;59.302;18.082;2023-11-19T14:37:10;3.80;;;3.60;;
17650;SDS011;26663;59.302;18.082;2023-11-19T14:40:13;9.00;;;3.70;;
17650;SDS011;26663;59.302;18.082;2023-11-19T14:43:17;3.87;;;3.50;;
17650;SDS011;26663;59.302;18.082;2023-11-19T14:46:21;3.73;;;3.53;;
17650;SDS011;26663;59.302;18.082;2023-11-19T14:49:26;3.60;;;3.30;;
17650;SDS011;26663;59.302;18.082;2023-11-19T14:52:30;3.60;;;3.40;;
17650;SDS011;26663;59.302;18.082;2023-11-19T14:55:34;3.70;;;3.60;;
17650;SDS011;26663;59.302;18.082;2023-11-19T14:58:37;3.70;;;3.50;;
17650;SDS011;26663;59.302;18.082;2023-11-19T15:01:41;3.07;;;2.97;;
17650;SDS011;26663;59.302;18.082;2023-11-19T15:04:49;2.93;;;2.77;;
17650;SDS011;26663;59.302;18.082;2023-11-19T15:07:53;3.40;;;3.20;;
17650;SDS011;26663;59.302;18.082;2023-11-19T15:10:57;3.00;;;2.90;;
17650;SDS011;26663;59.302;18.082;2023-11-19T15:14:05;3.20;;;3.00;;
17650;SDS011;26663;59.302;18.082;2023-11-19T15:17:08;2.80;;;2.60;;
17650;SDS011;26663;59.302;18.082;2023-11-19T15:20:14;2.93;;;2.70;;
17650;SDS011;26663;59.302;18.082;2023-11-19T15:23:20;3.80;;;2.77;;
17650;SDS011;26663;59.302;18.082;2023-11-19T15:26:24;2.53;;;2.43;;
17650;SDS011;26663;59.302;18.082;2023-11-19T15:29:28;3.57;;;2.50;;
17650;SDS011;26663;59.302;18.082;2023-11-19T15:32:32;2.70;;;2.50;;
17650;SDS011;26663;59.302;18.082;2023-11-19T15:35:37;2.80;;;2.70;;
17650;SDS011;26663;59.302;18.082;2023-11-19T15:38:42;2.70;;;2.60;;
17650;SDS011;26663;59.302;18.082;2023-11-19T15:41:49;2.80;;;2.70;;
17650;SDS011;26663;59.302;18.082;2023-11-19T15:44:53;3.00;;;2.90;;
17650;SDS011;26663;59.302;18.082;2023-11-19T15:47:56;3.10;;;2.90;;
17650;SDS011;26663;59.302;18.082;2023-11-19T15:51:02;2.70;;;2.60;;
17650;SDS011;26663;59.302;18.082;2023-11-19T15:54:05;2.97;;;2.87;;
17650;SDS011;26663;59.302;18.082;2023-11-19T15:57:09;2.97;;;2.87;;
17650;SDS011;26663;59.302;18.082;2023-11-19T16:00:13;2.73;;;2.73;;
17650;SDS011;26663;59.302;18.082;2023-11-19T16:03:19;3.20;;;3.10;;
17650;SDS011;26663;59.302;18.082;2023-11-19T16:06:24;3.60;;;3.30;;
17650;SDS011;26663;59.302;18.082;2023-11-19T16:09:28;3.00;;;2.90;;
17650;SDS011;26663;59.302;18.082;2023-11-19T16:12:32;4.40;;;3.20;;
17650;SDS011;26663;59.302;18.082;2023-11-19T16:15:36;2.90;;;2.80;;
17650;SDS011;26663;59.302;18.082;2023-11-19T16:18:39;3.63;;;3.30;;
17650;SDS011;26663;59.302;18.082;2023-11-19T16:21:45;3.37;;;3.20;;
17650;SDS011;26663;59.302;18.082;2023-11-19T16:24:49;3.70;;;3.50;;
17650;SDS011;26663;59.302;18.082;2023-11-19T16:27:57;4.60;;;4.30;;
17650;SDS011;26663;59.302;18.082;2023-11-19T16:31:01;3.60;;;3.40;;
17650;SDS011;26663;59.302;18.082;2023-11-19T16:34:06;3.23;;;3.13;;
17650;SDS011;26663;59.302;18.082;2023-11-19T16:37:11;2.90;;;2.80;;
17650;SDS011;26663;59.302;18.082;2023-11-19T16:40:15;3.23;;;3.07;;
17650;SDS011;26663;59.302;18.082;2023-11-19T16:43:19;3.57;;;3.37;;
17650;SDS011;26663;59.302;18.082;2023-11-19T16:46:24;3.57;;;3.47;;
17650;SDS011;26663;59.302;18.082;2023-11-19T16:49:31;3.50;;;3.40;;
17650;SDS011;26663;59.302;18.082;2023-11-19T16:52:36;3.47;;;3.27;;
17650;SDS011;26663;59.302;18.082;2023-11-19T16:55:40;3.73;;;3.60;;
17650;SDS011;26663;59.302;18.082;2023-11-19T16:58:44;3.30;;;3.10;;
17650;SDS011;26663;59.302;18.082;2023-11-19T17:01:47;3.63;;;3.43;;
17650;SDS011;26663;59.302;18.082;2023-11-19T17:04:52;3.40;;;3.20;;
17650;SDS011;26663;59.302;18.082;2023-11-19T17:07:57;4.23;;;4.03;;
17650;SDS011;26663;59.302;18.082;2023-11-19T17:11:01;3.60;;;3.50;;
17650;SDS011;26663;59.302;18.082;2023-11-19T17:14:05;3.27;;;3.00;;
17650;SDS011;26663;59.302;18.082;2023-11-19T17:17:09;4.70;;;3.37;;
17650;SDS011;26663;59.302;18.082;2023-11-19T17:20:13;3.30;;;3.20;;
17650;SDS011;26663;59.302;18.082;2023-11-19T17:23:19;4.17;;;3.23;;
17650;SDS011;26663;59.302;18.082;2023-11-19T17:26:22;3.47;;;3.37;;
17650;SDS011;26663;59.302;18.082;2023-11-19T17:29:46;4.27;;;3.87;;
17650;SDS011;26663;59.302;18.082;2023-11-19T17:32:49;3.70;;;3.60;;
17650;SDS011;26663;59.302;18.082;2023-11-19T17:35:53;4.37;;;3.40;;
17650;SDS011;26663;59.302;18.082;2023-11-19T17:38:59;4.50;;;4.10;;
17650;SDS011;26663;59.302;18.082;2023-11-19T17:42:06;3.50;;;3.30;;
17650;SDS011;26663;59.302;18.082;2023-11-19T17:45:10;3.77;;;3.57;;
17650;SDS011;26663;59.302;18.082;2023-11-19T17:48:16;3.93;;;3.73;;
17650;SDS011;26663;59.302;18.082;2023-11-19T17:51:19;3.50;;;3.40;;
17650;SDS011;26663;59.302;18.082;2023-11-19T17:54:25;3.97;;;3.50;;
17650;SDS011;26663;59.302;18.082;2023-11-19T17:57:29;3.80;;;3.60;;
17650;SDS011;26663;59.302;18.082;2023-11-19T18:00:33;3.53;;;3.23;;
17650;SDS011;26663;59.302;18.082;2023-11-19T18:03:37;3.90;;;3.70;;
17650;SDS011;26663;59.302;18.082;2023-11-19T18:06:43;4.30;;;4.00;;
17650;SDS011;26663;59.302;18.082;2023-11-19T18:09:48;3.73;;;3.53;;
17650;SDS011;26663;59.302;18.082;2023-11-19T18:12:52;6.63;;;3.63;;
17650;SDS011;26663;59.302;18.082;2023-11-19T18:15:57;3.50;;;3.30;;
17650;SDS011;26663;59.302;18.082;2023-11-19T18:19:00;3.67;;;3.43;;